Time;durP1;ratioP1;P1;durP2;ratioP2;P2;SDS_P1;SDS_P2;PMS_P1;PMS_P2;Temp;Humidity;BMP_temperature;BMP_pressure;BME280_temperature;BME280_humidity;BME280_pressure;Samples;Min_cycle;Max_cycle;Signal;HPM_P1;HPM_P2
2023/06/11 00:00:20;;;;;;;16.73;15.00;;;20.40;63.50;;;;;;4995630;28;20049;-68
2023/06/11 00:02:54;;;;;;;18.45;14.25;;;20.40;63.60;;;;;;5008666;28;20029;-69
2023/06/11 00:05:30;;;;;;;15.75;14.30;;;20.30;63.50;;;;;;4992195;28;20078;-66
2023/06/11 00:08:00;;;;;;;17.75;15.93;;;20.30;63.60;;;;;;5017231;28;20041;-69
2023/06/11 00:10:27;;;;;;;17.08;15.48;;;20.30;63.70;;;;;;4999025;28;20044;-70
2023/06/11 00:12:53;;;;;;;17.25;15.65;;;20.20;63.60;;;;;;5002112;28;20579;-69
2023/06/11 00:15:19;;;;;;;17.60;15.85;;;20.20;63.70;;;;;;5007664;28;20564;-66
2023/06/11 00:17:47;;;;;;;18.17;16.48;;;20.20;63.70;;;;;;4992445;28;20029;-68
2023/06/11 00:20:16;;;;;;;21.05;18.83;;;20.20;64.40;;;;;;5001249;28;20464;-71
2023/06/11 00:22:45;;;;;;;18.95;17.20;;;20.20;63.90;;;;;;4994780;28;20038;-67
2023/06/11 00:25:14;;;;;;;18.92;17.23;;;20.10;63.90;;;;;;5006295;28;20041;-68
2023/06/11 00:27:46;;;;;;;19.35;17.50;;;20.10;64.00;;;;;;5001247;28;20119;-66
2023/06/11 00:30:12;;;;;;;20.27;18.25;;;20.10;64.00;;;;;;4997716;28;20030;-67
2023/06/11 00:32:38;;;;;;;20.55;18.58;;;20.00;63.90;;;;;;4999432;28;20095;-68
2023/06/11 00:35:11;;;;;;;19.30;17.52;;;20.00;64.00;;;;;;5004165;28;20037;-67
2023/06/11 00:37:37;;;;;;;19.70;17.73;;;20.00;64.60;;;;;;5005574;28;20409;-67
2023/06/11 00:40:07;;;;;;;18.92;17.15;;;20.00;64.20;;;;;;4998750;28;20497;-68
2023/06/11 00:42:34;;;;;;;19.75;17.85;;;19.90;64.10;;;;;;5002743;28;20034;-67
2023/06/11 00:45:01;;;;;;;19.63;17.63;;;19.90;64.10;;;;;;4997814;28;20034;-67
2023/06/11 00:47:27;;;;;;;20.23;18.40;;;19.90;64.20;;;;;;5002007;28;20038;-69
2023/06/11 00:49:54;;;;;;;20.00;17.80;;;19.90;64.40;;;;;;5001413;28;20065;-66
2023/06/11 00:52:20;;;;;;;21.80;19.58;;;19.80;64.30;;;;;;5000618;28;20041;-66
2023/06/11 00:54:50;;;;;;;19.10;17.10;;;19.80;64.30;;;;;;5002746;28;20032;-67
2023/06/11 00:57:24;;;;;;;17.95;16.25;;;19.80;64.40;;;;;;5000419;28;20034;-69
2023/06/11 00:59:53;;;;;;;19.67;17.88;;;19.80;64.50;;;;;;4999110;28;20611;-69
2023/06/11 01:02:25;;;;;;;18.85;17.15;;;19.70;64.40;;;;;;4999992;28;20232;-69
2023/06/11 01:04:56;;;;;;;18.97;17.10;;;19.70;64.50;;;;;;4985843;28;20423;-71
2023/06/11 01:07:30;;;;;;;19.23;17.52;;;19.70;64.50;;;;;;5005406;28;20803;-69
2023/06/11 01:09:59;;;;;;;19.10;17.40;;;19.70;64.60;;;;;;5015529;28;20046;-67
2023/06/11 01:12:25;;;;;;;20.10;18.10;;;19.60;64.50;;;;;;5000066;28;20037;-71
2023/06/11 01:14:52;;;;;;;21.08;18.85;;;19.60;64.50;;;;;;5000708;28;20037;-69
2023/06/11 01:17:40;;;;;;;20.20;18.38;;;19.60;64.60;;;;;;4985114;28;20037;-69
2023/06/11 01:20:25;;;;;;;20.42;18.52;;;19.60;64.80;;;;;;4982625;28;20056;-69
2023/06/11 01:23:20;;;;;;;20.70;18.83;;;19.60;64.80;;;;;;5013266;28;20038;-67
2023/06/11 01:25:57;;;;;;;21.13;19.13;;;19.60;64.90;;;;;;4994696;28;20284;-67
2023/06/11 01:28:30;;;;;;;21.63;19.73;;;19.60;64.90;;;;;;4996417;28;20061;-68
2023/06/11 01:31:13;;;;;;;20.80;18.67;;;19.50;64.80;;;;;;4997695;23;20053;-77
2023/06/11 01:33:46;;;;;;;21.80;19.38;;;19.50;64.80;;;;;;5002509;28;20436;-78
2023/06/11 01:36:17;;;;;;;21.75;19.60;;;19.50;64.80;;;;;;5008706;28;20030;-77
2023/06/11 01:38:44;;;;;;;22.80;20.58;;;19.50;64.90;;;;;;5015522;28;20402;-77
2023/06/11 01:41:25;;;;;;;23.05;20.80;;;19.50;65.00;;;;;;5024822;28;20085;-76
2023/06/11 01:43:51;;;;;;;23.20;20.70;;;19.50;65.10;;;;;;4989787;28;20037;-79
2023/06/11 01:46:18;;;;;;;23.15;20.92;;;19.50;65.20;;;;;;5024148;23;20061;-83
2023/06/11 01:48:47;;;;;;;24.42;22.08;;;19.50;65.30;;;;;;5017602;28;20515;-83
2023/06/11 01:51:17;;;;;;;25.88;23.13;;;19.50;65.40;;;;;;4994203;28;20520;-82
2023/06/11 01:53:43;;;;;;;24.80;22.40;;;19.50;65.50;;;;;;5011719;28;20188;-82
2023/06/11 01:56:10;;;;;;;25.77;23.23;;;19.50;65.60;;;;;;5013168;28;20445;-85
2023/06/11 01:58:45;;;;;;;23.60;21.30;;;19.50;65.70;;;;;;5003642;28;20292;-83
2023/06/11 02:01:12;;;;;;;26.55;23.75;;;19.50;65.80;;;;;;5012804;28;20494;-83
2023/06/11 02:03:52;;;;;;;26.35;23.80;;;19.50;66.00;;;;;;5007099;28;20087;-84
2023/06/11 02:06:18;;;;;;;26.60;23.80;;;19.50;66.00;;;;;;5015490;28;20038;-83
2023/06/11 02:08:50;;;;;;;25.83;23.15;;;19.50;66.20;;;;;;5014838;28;20161;-82
2023/06/11 02:11:25;;;;;;;25.33;22.92;;;19.50;66.40;;;;;;5013143;28;20129;-82
2023/06/11 02:14:01;;;;;;;27.35;24.58;;;19.50;66.50;;;;;;5011857;28;20038;-83
2023/06/11 02:16:28;;;;;;;27.15;24.55;;;19.50;66.50;;;;;;5009926;28;20039;-82
2023/06/11 02:18:57;;;;;;;27.40;24.65;;;19.50;66.70;;;;;;5009379;28;20135;-83
2023/06/11 02:21:24;;;;;;;26.48;23.88;;;19.50;66.80;;;;;;5013564;28;20050;-85
2023/06/11 02:23:51;;;;;;;25.65;23.25;;;19.50;67.00;;;;;;5010138;28;20060;-83
2023/06/11 02:26:27;;;;;;;26.60;23.75;;;19.50;67.10;;;;;;5012951;28;20038;-82
2023/06/11 02:29:03;;;;;;;26.48;23.55;;;19.50;67.10;;;;;;5010487;28;20041;-83
2023/06/11 02:31:29;;;;;;;32.85;26.42;;;19.50;67.80;;;;;;5009773;28;20025;-82
2023/06/11 02:33:56;;;;;;;26.17;23.58;;;19.50;67.40;;;;;;5009702;28;20041;-82
2023/06/11 02:36:23;;;;;;;27.13;24.55;;;19.50;67.50;;;;;;5027580;28;20029;-83
2023/06/11 02:38:52;;;;;;;26.33;23.73;;;19.50;67.60;;;;;;5010506;28;20042;-82
2023/06/11 02:41:18;;;;;;;28.52;25.60;;;19.50;67.60;;;;;;5012738;28;20370;-83
2023/06/11 02:43:44;;;;;;;26.48;23.67;;;19.50;67.70;;;;;;5008956;28;20131;-83
2023/06/11 02:46:14;;;;;;;28.10;25.30;;;19.50;67.80;;;;;;5006951;28;20049;-82
2023/06/11 02:48:46;;;;;;;28.52;25.73;;;19.50;67.90;;;;;;5007275;28;20390;-83
2023/06/11 02:51:12;;;;;;;28.50;25.77;;;19.50;67.90;;;;;;4993736;28;20181;-83
2023/06/11 02:53:48;;;;;;;27.02;24.52;;;19.50;68.00;;;;;;5012075;28;20133;-82
2023/06/11 02:56:15;;;;;;;26.83;24.20;;;19.50;68.10;;;;;;5011258;28;20029;-81
2023/06/11 02:58:47;;;;;;;30.10;26.88;;;19.50;68.20;;;;;;4993206;28;20038;-80
2023/06/11 03:01:13;;;;;;;28.23;25.15;;;19.50;68.30;;;;;;4993854;28;20030;-81
2023/06/11 03:03:40;;;;;;;28.55;25.73;;;19.50;68.40;;;;;;5006792;28;20045;-81
2023/06/11 03:06:08;;;;;;;29.75;26.88;;;19.40;68.30;;;;;;5009578;28;20041;-81
2023/06/11 03:08:37;;;;;;;30.63;27.38;;;19.40;68.40;;;;;;5010970;28;20151;-82
2023/06/11 03:11:22;;;;;;;29.75;26.77;;;19.40;68.50;;;;;;5005143;28;20169;-82
2023/06/11 03:13:49;;;;;;;29.67;26.75;;;19.50;68.70;;;;;;4992206;28;20038;-84
2023/06/11 03:16:20;;;;;;;33.78;29.15;;;19.40;68.50;;;;;;5007382;28;20033;-83
2023/06/11 03:18:49;;;;;;;28.33;25.35;;;19.40;68.50;;;;;;4991409;28;20504;-82
2023/06/11 03:21:19;;;;;;;29.30;26.33;;;19.40;68.50;;;;;;5011069;28;20072;-82
2023/06/11 03:23:48;;;;;;;30.33;27.08;;;19.40;68.70;;;;;;4978067;28;20149;-82
2023/06/11 03:26:18;;;;;;;30.25;27.20;;;19.40;68.70;;;;;;5009327;28;20032;-81
2023/06/11 03:28:45;;;;;;;33.45;29.90;;;19.40;68.80;;;;;;5007941;28;20068;-82
2023/06/11 03:31:13;;;;;;;30.38;27.15;;;19.40;68.80;;;;;;5007747;28;20042;-84
2023/06/11 03:33:39;;;;;;;30.60;27.35;;;19.40;68.90;;;;;;5008826;28;20057;-82
2023/06/11 03:36:05;;;;;;;29.88;26.92;;;19.40;68.90;;;;;;5009873;28;20130;-82
2023/06/11 03:38:31;;;;;;;30.88;27.88;;;19.40;69.00;;;;;;5009767;28;20030;-82
2023/06/11 03:40:58;;;;;;;29.15;26.13;;;19.40;69.00;;;;;;5010109;28;20030;-83
2023/06/11 03:43:36;;;;;;;29.27;26.40;;;19.40;69.10;;;;;;4989838;28;20045;-82
2023/06/11 03:46:03;;;;;;;31.40;28.08;;;19.40;69.10;;;;;;5009019;28;20034;-84
2023/06/11 03:48:40;;;;;;;34.45;28.75;;;19.40;69.10;;;;;;5000184;28;20072;-83
2023/06/11 03:51:09;;;;;;;32.35;29.13;;;19.40;69.10;;;;;;5009826;28;20152;-82
2023/06/11 03:53:36;;;;;;;32.00;28.95;;;19.40;69.10;;;;;;5008679;28;20084;-83
2023/06/11 03:56:02;;;;;;;32.35;29.13;;;19.40;69.20;;;;;;5011522;28;20030;-82
2023/06/11 03:58:28;;;;;;;33.15;29.48;;;19.30;69.60;;;;;;5005442;28;20193;-82
2023/06/11 04:01:01;;;;;;;30.48;27.45;;;19.30;69.10;;;;;;5010947;28;20034;-83
2023/06/11 04:03:27;;;;;;;31.40;28.13;;;19.30;69.10;;;;;;5008378;28;20041;-82
2023/06/11 04:05:53;;;;;;;32.75;29.27;;;19.30;69.20;;;;;;5006838;28;20042;-83
2023/06/11 04:08:20;;;;;;;30.17;27.08;;;19.30;69.20;;;;;;5010086;28;20516;-81
2023/06/11 04:10:47;;;;;;;33.50;30.08;;;19.30;69.30;;;;;;5009211;28;20041;-82
2023/06/11 04:13:13;;;;;;;31.85;28.55;;;19.30;69.40;;;;;;5009350;28;20033;-82
2023/06/11 04:15:39;;;;;;;31.75;28.50;;;19.30;69.40;;;;;;5009031;28;20118;-83
2023/06/11 04:18:10;;;;;;;31.77;28.55;;;19.20;69.30;;;;;;5005550;28;20061;-84
2023/06/11 04:20:37;;;;;;;33.15;29.70;;;19.20;69.30;;;;;;4994094;28;20038;-83
2023/06/11 04:23:03;;;;;;;31.83;28.52;;;19.20;69.30;;;;;;5017836;28;20120;-82
2023/06/11 04:25:33;;;;;;;33.00;29.80;;;19.20;69.40;;;;;;5009137;28;20048;-82
2023/06/11 04:28:04;;;;;;;34.13;30.35;;;19.30;69.60;;;;;;5001111;28;20397;-84
2023/06/11 04:30:33;;;;;;;32.88;29.38;;;19.30;69.60;;;;;;5009299;28;20061;-84
2023/06/11 04:33:03;;;;;;;32.75;29.45;;;19.30;69.70;;;;;;4989029;28;20117;-84
2023/06/11 04:35:34;;;;;;;31.98;28.40;;;19.20;69.50;;;;;;4992984;28;20069;-83
2023/06/11 04:38:05;;;;;;;32.47;29.25;;;19.30;69.70;;;;;;5008920;28;20475;-84
2023/06/11 04:40:33;;;;;;;34.67;31.17;;;19.30;69.70;;;;;;5008424;28;20042;-83
2023/06/11 04:43:06;;;;;;;32.92;29.65;;;19.30;69.70;;;;;;5009435;28;20764;-85
2023/06/11 04:45:36;;;;;;;34.13;30.60;;;19.30;70.30;;;;;;5008426;28;20036;-82
2023/06/11 04:48:03;;;;;;;38.28;31.92;;;19.30;69.80;;;;;;5005442;28;20521;-84
2023/06/11 04:50:37;;;;;;;35.55;31.85;;;19.30;69.70;;;;;;5001723;28;20387;-83
2023/06/11 04:53:04;;;;;;;32.00;28.85;;;19.30;69.70;;;;;;4983155;28;20026;-83
2023/06/11 04:55:38;;;;;;;35.30;31.85;;;19.30;69.80;;;;;;4987585;28;20779;-82
2023/06/11 04:58:04;;;;;;;33.83;30.30;;;19.30;69.70;;;;;;5007104;28;20033;-82
2023/06/11 05:00:30;;;;;;;33.15;29.77;;;19.40;69.90;;;;;;5005374;28;20051;-82
2023/06/11 05:03:01;;;;;;;32.70;29.50;;;19.40;69.90;;;;;;5005133;28;20076;-84
2023/06/11 05:05:30;;;;;;;33.08;29.67;;;19.40;69.90;;;;;;5004268;28;20124;-83
2023/06/11 05:07:59;;;;;;;34.22;30.90;;;19.40;69.90;;;;;;4997319;28;20097;-83
2023/06/11 05:10:27;;;;;;;31.70;28.48;;;19.40;69.90;;;;;;4986550;28;20038;-82
2023/06/11 05:12:53;;;;;;;34.30;30.67;;;19.50;70.10;;;;;;5006916;28;20049;-84
2023/06/11 05:15:23;;;;;;;33.78;30.35;;;19.50;70.10;;;;;;5001330;28;20095;-83
2023/06/11 05:17:49;;;;;;;34.05;30.65;;;19.50;70.10;;;;;;5004255;28;20029;-85
2023/06/11 05:20:16;;;;;;;34.80;31.08;;;19.50;70.20;;;;;;5004692;28;20085;-83
2023/06/11 05:22:45;;;;;;;35.33;31.58;;;19.50;70.20;;;;;;4976823;28;20241;-82
2023/06/11 05:25:27;;;;;;;34.83;31.10;;;19.50;70.20;;;;;;5007092;28;20052;-83
2023/06/11 05:28:01;;;;;;;35.13;31.45;;;19.50;70.20;;;;;;5003705;28;20361;-82
2023/06/11 05:30:33;;;;;;;32.75;29.63;;;19.60;70.40;;;;;;4992540;28;20044;-88
2023/06/11 05:33:00;;;;;;;34.40;30.77;;;19.60;70.40;;;;;;5012062;28;20037;-85
2023/06/11 05:35:27;;;;;;;34.50;30.77;;;19.60;70.40;;;;;;5002814;28;20095;-84
2023/06/11 05:37:55;;;;;;;34.83;31.23;;;19.60;70.40;;;;;;5005096;28;20484;-86
2023/06/11 05:40:27;;;;;;;34.05;30.67;;;19.70;71.20;;;;;;4973649;28;20050;-84
2023/06/11 05:42:53;;;;;;;35.88;32.28;;;19.70;70.60;;;;;;4987753;28;20292;-85
2023/06/11 05:45:19;;;;;;;34.22;30.85;;;19.70;70.60;;;;;;5012443;28;20476;-85
2023/06/11 05:47:46;;;;;;;35.05;31.52;;;19.70;70.60;;;;;;5003077;28;20054;-84
2023/06/11 05:50:12;;;;;;;36.47;32.05;;;19.80;70.70;;;;;;5000117;28;20145;-84
2023/06/11 05:52:58;;;;;;;34.67;31.00;;;19.80;70.70;;;;;;4988705;28;20034;-84
2023/06/11 05:55:25;;;;;;;34.95;30.45;;;19.80;70.60;;;;;;5001951;28;20041;-86
2023/06/11 05:57:52;;;;;;;32.83;29.58;;;19.90;70.80;;;;;;5003817;28;20508;-86
2023/06/11 06:00:20;;;;;;;33.70;30.08;;;19.90;70.80;;;;;;5001534;28;20046;-87
2023/06/11 06:02:51;;;;;;;34.20;30.55;;;19.90;70.70;;;;;;5009876;28;20232;-85
2023/06/11 06:05:26;;;;;;;34.00;30.45;;;20.00;70.90;;;;;;5001099;28;20033;-84
2023/06/11 06:07:54;;;;;;;34.78;31.30;;;20.00;70.80;;;;;;5003246;28;20341;-87
2023/06/11 06:10:40;;;;;;;33.08;29.58;;;20.10;70.90;;;;;;4960013;28;20075;-87
2023/06/11 06:13:13;;;;;;;;;;;20.10;70.80;;;;;;4994196;28;20060;-87
2023/06/11 06:15:41;;;;;;;31.50;28.08;;;20.20;70.80;;;;;;5002744;28;19914;-86
2023/06/11 06:18:10;;;;;;;33.15;28.48;;;20.20;70.50;;;;;;5005590;28;20025;-86
2023/06/11 06:20:43;;;;;;;31.00;27.80;;;20.30;70.70;;;;;;5000428;28;20569;-85
2023/06/11 06:23:11;;;;;;;30.95;27.65;;;20.40;70.90;;;;;;4999379;28;20037;-88
2023/06/11 06:25:41;;;;;;;32.13;28.67;;;20.40;70.80;;;;;;4987677;28;20037;-93
2023/06/11 06:28:14;;;;;;;28.25;25.42;;;20.50;70.80;;;;;;5010563;28;20142;-95
2023/06/11 06:30:41;;;;;;;29.63;25.10;;;20.60;70.90;;;;;;5011674;28;20477;-89
2023/06/11 06:33:07;;;;;;;28.80;23.73;;;20.70;71.10;;;;;;4993519;28;20037;-94
2023/06/11 06:35:43;;;;;;;27.38;24.45;;;20.80;71.30;;;;;;4989840;28;20509;-94
2023/06/11 06:38:09;;;;;;;28.77;25.60;;;20.90;71.40;;;;;;5001229;28;20033;-94
2023/06/11 06:40:36;;;;;;;26.10;23.35;;;21.00;71.60;;;;;;4998072;28;20049;-93
2023/06/11 06:43:02;;;;;;;26.35;23.48;;;21.10;71.90;;;;;;5008554;28;20042;-94
2023/06/11 06:45:35;;;;;;;27.40;23.90;;;21.20;72.10;;;;;;5006814;28;20398;-92
2023/06/11 06:48:12;;;;;;;25.48;22.85;;;21.30;72.00;;;;;;5007203;28;20137;-94
2023/06/11 06:50:46;;;;;;;29.98;23.73;;;21.40;72.10;;;;;;5010742;28;20105;-92
2023/06/11 06:53:19;;;;;;;26.55;23.83;;;21.40;72.00;;;;;;5017144;28;20034;-91
2023/06/11 06:55:48;;;;;;;28.48;25.48;;;21.50;72.00;;;;;;5012315;28;20045;-89
2023/06/11 06:58:14;;;;;;;28.25;25.45;;;21.60;72.10;;;;;;5004577;28;20037;-88
2023/06/11 07:00:50;;;;;;;29.58;25.77;;;21.70;72.20;;;;;;4990450;28;20045;-92
2023/06/11 07:03:21;;;;;;;27.08;24.38;;;21.70;72.10;;;;;;5008342;28;20044;-90
2023/06/11 07:05:48;;;;;;;26.88;24.13;;;21.80;72.10;;;;;;4991170;28;20109;-93
2023/06/11 07:08:16;;;;;;;25.73;23.20;;;21.80;71.80;;;;;;4993858;28;20026;-89
2023/06/11 07:10:51;;;;;;;28.95;25.42;;;21.90;71.80;;;;;;5013988;28;20064;-92
2023/06/11 07:13:25;;;;;;;27.27;22.98;;;22.00;71.90;;;;;;5005919;28;20038;-87
2023/06/11 07:15:51;;;;;;;25.90;23.02;;;22.00;71.60;;;;;;4988963;28;20120;-87
2023/06/11 07:18:18;;;;;;;25.02;22.50;;;22.20;71.70;;;;;;5004813;28;20346;-89
2023/06/11 07:20:44;;;;;;;23.77;21.48;;;22.20;71.50;;;;;;5008398;28;20034;-92
2023/06/11 07:23:13;;;;;;;25.17;22.73;;;22.30;71.40;;;;;;5003757;28;20052;-93
2023/06/11 07:25:43;;;;;;;25.58;22.80;;;22.40;71.40;;;;;;5021069;28;20121;-93
2023/06/11 07:28:09;;;;;;;25.83;21.92;;;22.50;71.40;;;;;;5011107;28;20265;-90
2023/06/11 07:30:36;;;;;;;25.20;22.75;;;22.60;71.40;;;;;;5010507;28;20053;-89
2023/06/11 07:33:06;;;;;;;23.73;21.48;;;22.60;71.20;;;;;;5015463;28;20075;-94
2023/06/11 07:35:40;;;;;;;24.05;21.65;;;22.70;71.20;;;;;;5017327;28;20038;-90
2023/06/11 07:38:10;;;;;;;23.65;21.02;;;22.80;71.30;;;;;;5012511;28;20030;-94
2023/06/11 07:40:37;;;;;;;25.92;22.13;;;22.80;71.10;;;;;;5010561;28;20076;-95
2023/06/11 07:43:09;;;;;;;24.23;21.67;;;22.80;71.00;;;;;;5017417;28;20381;-90
2023/06/11 07:45:45;;;;;;;23.27;20.85;;;22.80;70.80;;;;;;5022196;28;20564;-91
2023/06/11 07:48:16;;;;;;;23.33;21.02;;;22.90;70.80;;;;;;5017428;28;20566;-90
2023/06/11 07:50:44;;;;;;;22.58;20.33;;;22.90;70.70;;;;;;5015342;28;20033;-93
2023/06/11 07:53:13;;;;;;;22.95;20.63;;;23.00;70.70;;;;;;4997330;28;20294;-87
2023/06/11 07:55:42;;;;;;;23.45;20.85;;;23.00;70.50;;;;;;5007061;28;20045;-90
2023/06/11 07:58:08;;;;;;;24.77;22.17;;;23.00;70.40;;;;;;5014891;28;20129;-93
2023/06/11 08:01:01;;;;;;;23.27;21.10;;;23.00;70.30;;;;;;5028767;28;20101;-92
2023/06/11 08:03:30;;;;;;;23.52;21.25;;;23.00;70.10;;;;;;5017093;28;20099;-93
2023/06/11 08:05:56;;;;;;;26.02;23.23;;;23.10;70.20;;;;;;5011623;28;20120;-95
2023/06/11 08:08:28;;;;;;;27.33;24.42;;;23.10;70.10;;;;;;5012110;28;20124;-92
2023/06/11 08:10:54;;;;;;;26.80;24.15;;;23.10;69.90;;;;;;5015045;28;20084;-93
2023/06/11 08:13:23;;;;;;;27.77;25.05;;;23.20;69.80;;;;;;5010532;28;20125;-88
2023/06/11 08:15:53;;;;;;;27.48;24.30;;;23.20;69.60;;;;;;5005545;28;20049;-92
2023/06/11 08:18:19;;;;;;;28.90;25.88;;;23.30;69.60;;;;;;5024506;28;20088;-88
2023/06/11 08:21:09;;;;;;;31.27;27.83;;;23.30;69.50;;;;;;5007116;28;20081;-87
2023/06/11 08:23:39;;;;;;;46.50;26.80;;;23.40;70.30;;;;;;5010996;28;20500;-86
2023/06/11 08:26:06;;;;;;;27.30;24.45;;;23.50;70.00;;;;;;5008117;28;20208;-88
2023/06/11 08:28:32;;;;;;;25.67;22.98;;;23.60;70.10;;;;;;4999004;28;20119;-85
2023/06/11 08:30:59;;;;;;;25.50;22.35;;;23.70;70.10;;;;;;5003956;28;20473;-85
2023/06/11 08:33:26;;;;;;;24.63;22.08;;;23.80;70.00;;;;;;5008433;28;20489;-91
2023/06/11 08:35:54;;;;;;;28.27;23.15;;;23.90;69.90;;;;;;5011238;28;20820;-94
2023/06/11 08:38:25;;;;;;;25.05;22.33;;;24.10;69.80;;;;;;5007649;28;20034;-90
2023/06/11 08:40:51;;;;;;;24.60;21.70;;;24.30;69.80;;;;;;5005767;28;20099;-94
2023/06/11 08:43:17;;;;;;;25.05;22.05;;;24.50;69.70;;;;;;5006598;28;20045;-95
2023/06/11 08:45:48;;;;;;;26.42;23.63;;;24.80;69.50;;;;;;5012334;28;20287;-91
2023/06/11 08:48:27;;;;;;;22.27;20.08;;;25.10;69.10;;;;;;5013430;28;20157;-84
2023/06/11 08:50:54;;;;;;;24.00;21.58;;;25.30;68.50;;;;;;5009392;28;20069;-91
2023/06/11 08:53:30;;;;;;;25.65;22.77;;;25.50;67.90;;;;;;4983874;28;20126;-91
2023/06/11 08:56:02;;;;;;;27.30;24.70;;;25.80;67.30;;;;;;5009467;28;20041;-90
2023/06/11 08:58:33;;;;;;;25.95;23.38;;;26.00;66.80;;;;;;5004163;28;20044;-91
2023/06/11 09:01:10;;;;;;;25.50;22.85;;;26.30;66.10;;;;;;5004796;28;20279;-91
2023/06/11 09:03:37;;;;;;;28.63;25.60;;;26.60;65.40;;;;;;5017941;28;20031;-95
2023/06/11 09:06:06;;;;;;;27.55;24.30;;;26.80;64.90;;;;;;5007882;28;20036;-93
2023/06/11 09:08:33;;;;;;;27.17;24.23;;;26.90;64.40;;;;;;5010363;28;20368;-90
2023/06/11 09:11:15;;;;;;;24.38;21.95;;;27.00;64.10;;;;;;4992265;28;20113;-90
2023/06/11 09:13:42;;;;;;;25.48;22.88;;;27.20;63.90;;;;;;5010418;28;20048;-89
2023/06/11 09:16:07;;;;;;;25.85;23.33;;;27.30;63.60;;;;;;4989634;28;20041;-91
2023/06/11 09:18:34;;;;;;;25.73;23.10;;;27.40;63.20;;;;;;4990623;28;20065;-95
2023/06/11 09:21:00;;;;;;;26.67;23.85;;;27.50;62.80;;;;;;5006963;28;20237;-91
2023/06/11 09:23:32;;;;;;;29.15;26.05;;;27.60;62.60;;;;;;5006016;28;20595;-91
2023/06/11 09:26:00;;;;;;;28.15;25.33;;;27.60;62.40;;;;;;5001707;28;20045;-89
2023/06/11 09:28:34;;;;;;;27.98;25.20;;;27.60;62.20;;;;;;5002306;28;20022;-90
2023/06/11 09:31:03;;;;;;;27.75;25.13;;;27.60;62.10;;;;;;5007082;28;20029;-89
2023/06/11 09:33:36;;;;;;;29.23;26.13;;;27.60;62.00;;;;;;5008577;28;20111;-89
2023/06/11 09:36:04;;;;;;;28.90;25.77;;;27.60;61.90;;;;;;5002255;28;20548;-89
2023/06/11 09:38:36;;;;;;;29.63;26.58;;;27.60;61.80;;;;;;5001604;28;20120;-90
2023/06/11 09:41:07;;;;;;;31.10;27.95;;;27.60;61.70;;;;;;5001097;28;20045;-89
2023/06/11 09:43:36;;;;;;;30.50;26.77;;;27.60;61.70;;;;;;5004020;28;20571;-92
2023/06/11 09:46:03;;;;;;;28.20;25.15;;;27.60;61.60;;;;;;5005414;28;20598;-88
2023/06/11 09:48:29;;;;;;;30.77;27.40;;;27.70;61.50;;;;;;5006348;28;20129;-91
2023/06/11 09:51:00;;;;;;;30.85;27.63;;;27.70;61.30;;;;;;5001464;28;20212;-88
2023/06/11 09:53:28;;;;;;;29.52;26.45;;;27.80;61.20;;;;;;5013668;28;20084;-92
2023/06/11 09:55:58;;;;;;;30.13;27.27;;;27.80;61.00;;;;;;4998809;28;20057;-91
2023/06/11 09:58:27;;;;;;;29.52;26.38;;;27.80;60.90;;;;;;5004322;28;20034;-88
2023/06/11 10:01:03;;;;;;;25.17;22.60;;;27.80;60.80;;;;;;5008039;28;20052;-88
2023/06/11 10:03:30;;;;;;;25.70;23.25;;;27.80;60.80;;;;;;5005340;28;20113;-91
2023/06/11 10:05:57;;;;;;;23.60;21.42;;;27.80;60.70;;;;;;5002973;28;20602;-88
2023/06/11 10:08:34;;;;;;;23.88;21.60;;;27.80;60.70;;;;;;5006219;28;20034;-89
2023/06/11 10:11:04;;;;;;;24.77;22.38;;;27.70;60.50;;;;;;5010761;28;20440;-89
2023/06/11 10:13:33;;;;;;;23.50;21.15;;;27.70;60.60;;;;;;5012974;28;20116;-92
2023/06/11 10:16:01;;;;;;;21.20;19.20;;;27.70;60.60;;;;;;4994284;28;20048;-92
2023/06/11 10:18:27;;;;;;;25.15;22.52;;;27.60;60.60;;;;;;5007432;28;20778;-91
2023/06/11 10:21:03;;;;;;;23.88;20.50;;;27.60;60.70;;;;;;5017024;28;20076;-92
2023/06/11 10:23:38;;;;;;;22.10;20.02;;;27.50;61.30;;;;;;5019433;28;20038;-92
2023/06/11 10:26:09;;;;;;;21.42;19.17;;;27.40;60.90;;;;;;5012890;28;20063;-88
2023/06/11 10:28:51;;;;;;;20.65;18.65;;;27.30;61.10;;;;;;5008505;28;20049;-88
2023/06/11 10:31:29;;;;;;;22.05;19.90;;;27.10;61.30;;;;;;5007787;28;20443;-87
2023/06/11 10:34:05;;;;;;;20.92;18.77;;;27.00;61.60;;;;;;5004160;28;20080;-88
2023/06/11 10:36:36;;;;;;;20.88;18.83;;;26.80;61.70;;;;;;5009386;28;20339;-87
2023/06/11 10:39:22;;;;;;;20.73;18.70;;;26.70;62.00;;;;;;5015320;28;20072;-86
2023/06/11 10:42:00;;;;;;;23.17;20.65;;;26.60;62.10;;;;;;5018339;28;20038;-89
2023/06/11 10:44:29;;;;;;;19.63;17.60;;;26.40;62.20;;;;;;5020152;28;20042;-91
2023/06/11 10:46:58;;;;;;;18.73;16.85;;;26.40;62.50;;;;;;5022347;28;20060;-94
2023/06/11 10:49:28;;;;;;;18.20;16.35;;;26.20;62.50;;;;;;5005798;28;20181;-93
2023/06/11 10:52:01;;;;;;;;;;;26.20;62.80;;;;;;5024436;28;20045;-93
2023/06/11 10:54:33;;;;;;;16.52;14.75;;;26.10;62.80;;;;;;5016284;28;19920;-92
2023/06/11 10:57:01;;;;;;;17.17;15.48;;;26.10;63.00;;;;;;5007634;28;20121;-93
2023/06/11 10:59:27;;;;;;;16.13;14.63;;;26.00;63.10;;;;;;5016452;28;20041;-93
2023/06/11 11:01:54;;;;;;;18.05;15.95;;;26.00;63.10;;;;;;5012555;28;20109;-94
2023/06/11 11:04:23;;;;;;;20.67;18.45;;;26.00;63.20;;;;;;5022905;28;20206;-91
2023/06/11 11:06:52;;;;;;;21.75;19.25;;;26.10;63.20;;;;;;4994242;28;20034;-91
2023/06/11 11:09:23;;;;;;;19.40;17.42;;;26.10;63.00;;;;;;5004480;28;20064;-92
2023/06/11 11:11:52;;;;;;;;;;;26.20;63.00;;;;;;5011581;28;20025;-93
2023/06/11 11:14:18;;;;;;;19.77;17.70;;;26.30;62.80;;;;;;5013339;28;19936;-95
2023/06/11 11:16:49;;;;;;;22.75;20.45;;;26.30;62.60;;;;;;5008725;28;20069;-94
2023/06/11 11:19:15;;;;;;;18.60;16.77;;;26.40;62.60;;;;;;5009063;28;20049;-94
2023/06/11 11:21:51;;;;;;;20.33;18.38;;;26.50;62.60;;;;;;5009921;28;20081;-94
2023/06/11 11:24:18;;;;;;;17.10;15.40;;;26.60;62.70;;;;;;5009142;28;20592;-92
2023/06/11 11:26:46;;;;;;;17.13;15.43;;;26.60;63.10;;;;;;5027403;28;20044;-94
2023/06/11 11:29:13;;;;;;;17.30;15.32;;;26.70;62.60;;;;;;5007119;28;20029;-94
2023/06/11 11:31:43;;;;;;;15.73;14.15;;;26.80;62.60;;;;;;5017553;28;20082;-95
2023/06/11 11:34:20;;;;;;;13.02;11.85;;;26.80;62.50;;;;;;5012593;28;20540;-93
2023/06/11 11:36:46;;;;;;;10.93;9.82;;;26.90;62.20;;;;;;5011330;28;20062;-95
2023/06/11 11:39:14;;;;;;;11.52;10.43;;;27.00;61.80;;;;;;5010528;28;20042;-94
2023/06/11 11:41:53;;;;;;;11.35;10.25;;;27.20;61.50;;;;;;5010930;28;20533;-90
2023/06/11 11:44:20;;;;;;;11.55;10.35;;;27.30;61.10;;;;;;5000987;28;20226;-88
2023/06/11 11:46:46;;;;;;;11.82;10.65;;;27.40;60.90;;;;;;5004757;28;20057;-88
2023/06/11 11:49:13;;;;;;;11.18;10.15;;;27.50;60.70;;;;;;5000565;28;20053;-90
2023/06/11 11:51:45;;;;;;;10.95;8.57;;;27.60;60.50;;;;;;5007918;28;20346;-90
2023/06/11 11:54:14;;;;;;;10.23;9.27;;;27.80;60.40;;;;;;5008448;28;20133;-91
2023/06/11 11:57:07;;;;;;;10.43;9.23;;;27.80;60.20;;;;;;5006198;28;20081;-93
2023/06/11 11:59:38;;;;;;;10.27;8.98;;;27.90;60.10;;;;;;4999867;28;20138;-90
2023/06/11 12:02:07;;;;;;;9.98;8.63;;;28.00;60.00;;;;;;5010938;28;20077;-94
2023/06/11 12:04:37;;;;;;;9.75;8.38;;;28.00;59.80;;;;;;4996757;28;20033;-90
2023/06/11 12:07:11;;;;;;;11.00;9.07;;;28.00;59.50;;;;;;5010299;28;20040;-91
2023/06/11 12:09:49;;;;;;;;;;;28.00;59.50;;;;;;5022679;28;20559;-89
2023/06/11 12:12:31;;;;;;;9.27;8.32;;;28.00;59.50;;;;;;4993903;28;19940;-90
2023/06/11 12:15:00;;;;;;;13.70;9.77;;;28.00;59.50;;;;;;5011376;28;20038;-91
2023/06/11 12:17:32;;;;;;;12.30;9.40;;;28.00;59.50;;;;;;5002915;28;20037;-87
2023/06/11 12:20:13;;;;;;;10.02;8.88;;;28.10;59.40;;;;;;5013500;28;20122;-91
2023/06/11 12:22:40;;;;;;;8.93;8.02;;;28.10;59.40;;;;;;5007795;28;20543;-92
2023/06/11 12:25:06;;;;;;;8.52;7.55;;;28.20;59.30;;;;;;5008351;28;20183;-86
2023/06/11 12:27:37;;;;;;;10.20;7.47;;;28.20;59.10;;;;;;4996723;28;20030;-88
2023/06/11 12:30:05;;;;;;;10.45;9.07;;;28.20;58.90;;;;;;5013246;28;20045;-89
2023/06/11 12:32:31;;;;;;;12.15;9.50;;;28.30;58.80;;;;;;5002350;28;20564;-90
2023/06/11 12:35:12;;;;;;;10.23;8.48;;;28.20;58.70;;;;;;5029358;28;20034;-90
2023/06/11 12:37:45;;;;;;;9.93;8.95;;;28.20;58.60;;;;;;5009190;28;20092;-92
2023/06/11 12:40:14;;;;;;;10.93;8.23;;;28.20;58.50;;;;;;5006280;28;20080;-88
2023/06/11 12:42:43;;;;;;;11.40;9.70;;;28.20;58.40;;;;;;5007547;28;20052;-92